Time;durP1;ratioP1;P1;durP2;ratioP2;P2;SDS_P1;SDS_P2;PMS_P1;PMS_P2;Temp;Humidity;BMP_temperature;BMP_pressure;BME280_temperature;BME280_humidity;BME280_pressure;Samples;Min_cycle;Max_cycle;Signal;HPM_P1;HPM_P2
2021/12/04 00:01:18;;;;;;;5.63;2.92;;;;;;;;;;5095473;28;20054;-70
2021/12/04 00:03:44;;;;;;;4.68;2.13;;;;;;;;;;5095397;28;20025;-70
2021/12/04 00:06:22;;;;;;;3.85;1.83;;;;;;;;;;5094941;28;20059;-71
2021/12/04 00:08:48;;;;;;;3.42;2.00;;;;;;;;;;5095862;28;20069;-71
2021/12/04 00:11:15;;;;;;;3.42;2.03;;;;;;;;;;5095400;28;20047;-71
2021/12/04 00:13:41;;;;;;;4.07;2.42;;;;;;;;;;5095137;28;20028;-71
2021/12/04 00:16:07;;;;;;;3.88;2.45;;;;;;;;;;5095280;28;20480;-70
2021/12/04 00:18:33;;;;;;;6.78;3.33;;;;;;;;;;5095363;28;20028;-71
2021/12/04 00:21:00;;;;;;;5.70;2.65;;;;;;;;;;5094755;28;20024;-70
2021/12/04 00:23:26;;;;;;;4.80;3.00;;;;;;;;;;5095430;28;20483;-70
2021/12/04 00:25:52;;;;;;;5.40;2.55;;;;;;;;;;5095032;28;20036;-70
2021/12/04 00:28:18;;;;;;;4.18;2.38;;;;;;;;;;5094729;28;20031;-70
2021/12/04 00:30:46;;;;;;;8.48;2.80;;;;;;;;;;5095053;28;20464;-70
2021/12/04 00:33:19;;;;;;;3.70;2.22;;;;;;;;;;5093754;28;20027;-70
2021/12/04 00:35:53;;;;;;;6.38;3.03;;;;;;;;;;5094581;28;20362;-71
2021/12/04 00:51:37;;;;;;;4.45;2.40;;;;;;;;;;5094722;28;20024;-71
2021/12/04 00:54:05;;;;;;;4.45;2.40;;;;;;;;;;5094757;28;20023;-70
2021/12/04 00:56:32;;;;;;;4.05;1.90;;;;;;;;;;5094139;28;20023;-70
2021/12/04 00:58:58;;;;;;;3.95;2.05;;;;;;;;;;5094559;28;20476;-70
2021/12/04 01:01:24;;;;;;;4.00;2.00;;;;;;;;;;5094476;28;20024;-70
2021/12/04 01:03:51;;;;;;;3.92;2.10;;;;;;;;;;5094429;28;20028;-70
2021/12/04 01:06:17;;;;;;;8.77;2.60;;;;;;;;;;5094110;28;20101;-70
2021/12/04 01:08:43;;;;;;;3.95;2.30;;;;;;;;;;5094327;28;20020;-71
2021/12/04 01:11:09;;;;;;;3.80;2.15;;;;;;;;;;5093965;28;20035;-70
2021/12/04 01:13:36;;;;;;;3.17;1.48;;;;;;;;;;5094272;28;20028;-71
2021/12/04 01:16:02;;;;;;;4.85;2.17;;;;;;;;;;5093730;28;20028;-70
2021/12/04 01:18:28;;;;;;;4.70;2.28;;;;;;;;;;5093831;28;20472;-71
2021/12/04 01:20:55;;;;;;;3.88;2.20;;;;;;;;;;5094332;28;20036;-70
2021/12/04 01:23:21;;;;;;;3.70;2.03;;;;;;;;;;5093967;28;20016;-70
2021/12/04 01:25:48;;;;;;;3.97;2.40;;;;;;;;;;5093595;28;20456;-71
2021/12/04 01:28:14;;;;;;;4.78;2.22;;;;;;;;;;5094244;28;20020;-70
2021/12/04 01:30:40;;;;;;;4.03;2.03;;;;;;;;;;5092265;28;20034;-70
2021/12/04 01:33:06;;;;;;;5.30;2.05;;;;;;;;;;5094125;28;20020;-70
2021/12/04 01:35:33;;;;;;;4.82;2.53;;;;;;;;;;5093890;28;20043;-71
2021/12/04 01:37:59;;;;;;;3.65;1.80;;;;;;;;;;5093986;28;20020;-71
2021/12/04 01:40:27;;;;;;;3.55;2.03;;;;;;;;;;5093854;28;20064;-71
2021/12/04 01:42:53;;;;;;;3.53;1.73;;;;;;;;;;5093834;28;20460;-71
2021/12/04 01:45:20;;;;;;;4.65;1.85;;;;;;;;;;5093241;28;20035;-71
2021/12/04 01:47:46;;;;;;;4.22;1.80;;;;;;;;;;5093678;28;20052;-71
2021/12/04 01:50:13;;;;;;;5.10;2.20;;;;;;;;;;5093769;28;20024;-71
2021/12/04 01:52:39;;;;;;;3.38;1.70;;;;;;;;;;5093311;28;20024;-71
2021/12/04 01:55:06;;;;;;;3.95;1.90;;;;;;;;;;5093651;28;20480;-71
2021/12/04 01:57:32;;;;;;;3.10;1.90;;;;;;;;;;5093743;28;20016;-70
2021/12/04 01:59:59;;;;;;;2.95;1.67;;;;;;;;;;5093210;28;20031;-70
2021/12/04 02:02:25;;;;;;;3.55;1.88;;;;;;;;;;5092333;28;20107;-71
2021/12/04 02:04:51;;;;;;;4.32;2.35;;;;;;;;;;5093295;28;20050;-70
2021/12/04 02:07:20;;;;;;;5.43;2.60;;;;;;;;;;5093012;28;20027;-70
2021/12/04 02:09:46;;;;;;;4.63;2.55;;;;;;;;;;5093777;28;20035;-70
2021/12/04 02:12:12;;;;;;;5.20;2.50;;;;;;;;;;5093444;28;20024;-70
2021/12/04 02:14:40;;;;;;;5.30;2.20;;;;;;;;;;5093115;28;20469;-70
2021/12/04 02:17:07;;;;;;;5.70;2.63;;;;;;;;;;5093451;28;20047;-70
2021/12/04 02:19:33;;;;;;;4.88;2.60;;;;;;;;;;5092139;28;20020;-71
2021/12/04 02:21:59;;;;;;;5.68;2.83;;;;;;;;;;5092947;28;20084;-71
2021/12/04 02:24:26;;;;;;;5.55;2.72;;;;;;;;;;5093456;28;20027;-70
2021/12/04 02:26:52;;;;;;;4.68;2.33;;;;;;;;;;5093843;28;20032;-70
2021/12/04 02:29:18;;;;;;;4.43;2.45;;;;;;;;;;5097725;28;20460;-70
2021/12/04 02:31:48;;;;;;;4.10;2.45;;;;;;;;;;5097311;28;20055;-70
2021/12/04 02:34:21;;;;;;;6.15;2.72;;;;;;;;;;5096935;28;20016;-70
2021/12/04 02:36:47;;;;;;;;;;;;;;;;;;5097656;28;20096;-70
2021/12/04 02:39:24;;;;;;;4.82;2.53;;;;;;;;;;5097591;28;19965;-70
2021/12/04 02:41:50;;;;;;;5.80;3.08;;;;;;;;;;5096751;28;20215;-71
2021/12/04 02:44:16;;;;;;;5.97;3.05;;;;;;;;;;5097366;28;20422;-71
2021/12/04 02:46:43;;;;;;;5.53;2.90;;;;;;;;;;5096908;28;20515;-71
2021/12/04 02:49:12;;;;;;;4.35;2.50;;;;;;;;;;5096566;28;20020;-70
2021/12/04 02:51:38;;;;;;;6.47;3.15;;;;;;;;;;5097064;28;20026;-71
2021/12/04 02:54:06;;;;;;;6.18;3.10;;;;;;;;;;5096965;28;20016;-71
2021/12/04 02:56:32;;;;;;;5.75;2.50;;;;;;;;;;5096514;28;20031;-71
2021/12/04 02:59:02;;;;;;;6.50;3.45;;;;;;;;;;5095685;28;20388;-71
2021/12/04 03:01:28;;;;;;;5.85;2.88;;;;;;;;;;5097535;28;20103;-70
2021/12/04 03:04:07;;;;;;;6.82;3.17;;;;;;;;;;5096343;28;20532;-71
2021/12/04 03:06:38;;;;;;;6.00;3.05;;;;;;;;;;5096502;28;20052;-71
2021/12/04 03:09:06;;;;;;;6.45;3.35;;;;;;;;;;5096291;28;20025;-70
2021/12/04 03:11:32;;;;;;;6.80;3.35;;;;;;;;;;5095279;28;20476;-71
2021/12/04 03:13:59;;;;;;;6.20;2.97;;;;;;;;;;5096634;28;20020;-70
2021/12/04 03:16:25;;;;;;;8.27;3.88;;;;;;;;;;5096106;28;20027;-70
2021/12/04 03:18:51;;;;;;;5.72;2.85;;;;;;;;;;5096615;28;20020;-71
2021/12/04 03:21:17;;;;;;;7.72;3.67;;;;;;;;;;5095127;28;20490;-71
2021/12/04 03:24:02;;;;;;;9.30;3.67;;;;;;;;;;5095989;28;20024;-70
2021/12/04 03:26:29;;;;;;;6.93;3.20;;;;;;;;;;5096926;28;20024;-71
2021/12/04 03:28:57;;;;;;;7.35;3.78;;;;;;;;;;5096224;28;20474;-71
2021/12/04 03:42:04;;;;;;;5.05;3.13;;;;;;;;;;5096022;28;20058;-70
2021/12/04 03:44:31;;;;;;;6.70;2.90;;;;;;;;;;5095802;28;20028;-71
2021/12/04 03:46:58;;;;;;;5.20;3.20;;;;;;;;;;5095857;28;20032;-71
2021/12/04 03:49:24;;;;;;;7.78;3.58;;;;;;;;;;5095931;28;20024;-71
2021/12/04 03:51:51;;;;;;;6.57;3.35;;;;;;;;;;5095329;28;20536;-71
2021/12/04 03:54:17;;;;;;;5.93;3.05;;;;;;;;;;5096002;28;20072;-71
2021/12/04 03:56:44;;;;;;;6.47;3.58;;;;;;;;;;5096060;28;20023;-71
2021/12/04 03:59:10;;;;;;;8.18;3.80;;;;;;;;;;5095343;28;20030;-71
2021/12/04 04:01:36;;;;;;;8.13;3.35;;;;;;;;;;5095599;28;20090;-71
2021/12/04 04:04:02;;;;;;;10.68;3.45;;;;;;;;;;5095613;28;20024;-70
2021/12/04 04:06:28;;;;;;;6.30;3.15;;;;;;;;;;5094903;28;20055;-70
2021/12/04 04:08:55;;;;;;;5.45;3.25;;;;;;;;;;5095767;28;20020;-71
2021/12/04 04:11:21;;;;;;;6.78;3.10;;;;;;;;;;5095561;28;20053;-71
2021/12/04 04:13:47;;;;;;;6.00;3.03;;;;;;;;;;5095137;28;20054;-71
2021/12/04 04:16:14;;;;;;;6.88;3.65;;;;;;;;;;5095317;28;20028;-71
2021/12/04 04:18:40;;;;;;;8.57;3.58;;;;;;;;;;5095352;28;20592;-70
2021/12/04 04:21:06;;;;;;;9.00;3.72;;;;;;;;;;5094814;28;20039;-70
2021/12/04 04:23:32;;;;;;;7.10;3.47;;;;;;;;;;5095703;28;20435;-71
2021/12/04 04:25:58;;;;;;;5.88;3.35;;;;;;;;;;5095060;28;20036;-70
2021/12/04 04:28:24;;;;;;;6.72;3.50;;;;;;;;;;5094735;28;20031;-70
2021/12/04 04:30:51;;;;;;;8.75;4.28;;;;;;;;;;5095164;28;20032;-70
2021/12/04 04:33:17;;;;;;;7.63;4.10;;;;;;;;;;5095001;28;20020;-70
2021/12/04 04:35:56;;;;;;;8.60;3.83;;;;;;;;;;5095429;28;20122;-71
2021/12/04 04:38:33;;;;;;;7.45;3.70;;;;;;;;;;5095288;28;20456;-71
2021/12/04 05:00:48;;;;;;;8.18;4.50;;;;;;;;;;5072183;28;20029;-71
2021/12/04 05:11:35;;;;;;;7.10;3.78;;;;;;;;;;5094438;28;20054;-71
2021/12/04 05:14:04;;;;;;;8.23;3.67;;;;;;;;;;5094363;28;20031;-71
2021/12/04 05:16:41;;;;;;;7.38;3.70;;;;;;;;;;5094022;28;20028;-71
2021/12/04 05:19:26;;;;;;;11.13;4.68;;;;;;;;;;5094528;28;20380;-71
2021/12/04 05:21:52;;;;;;;7.20;3.83;;;;;;;;;;5094169;28;20034;-72
2021/12/04 05:24:18;;;;;;;9.63;4.97;;;;;;;;;;5093659;28;20042;-70
2021/12/04 05:26:44;;;;;;;7.53;4.18;;;;;;;;;;5094053;28;20024;-71
2021/12/04 05:29:11;;;;;;;8.73;4.68;;;;;;;;;;5094230;28;20463;-71
2021/12/04 05:31:37;;;;;;;11.93;5.22;;;;;;;;;;5093621;28;20107;-71
2021/12/04 05:34:03;;;;;;;9.55;4.72;;;;;;;;;;5093961;28;20016;-71
2021/12/04 05:36:29;;;;;;;9.30;4.50;;;;;;;;;;5094365;28;20028;-71
2021/12/04 05:38:55;;;;;;;10.88;5.25;;;;;;;;;;5093590;28;20016;-71
2021/12/04 05:41:22;;;;;;;8.25;4.50;;;;;;;;;;5093850;28;20020;-71
2021/12/04 05:43:49;;;;;;;12.30;5.18;;;;;;;;;;5093417;28;20031;-71
2021/12/04 05:46:17;;;;;;;8.68;4.53;;;;;;;;;;5093744;28;20081;-71
2021/12/04 05:48:49;;;;;;;8.23;4.43;;;;;;;;;;5093877;28;20051;-71
2021/12/04 05:53:55;;;;;;;9.52;4.78;;;;;;;;;;5093672;28;20024;-71
2021/12/04 05:56:22;;;;;;;9.65;4.85;;;;;;;;;;5093767;28;20103;-71
2021/12/04 05:58:48;;;;;;;12.07;6.50;;;;;;;;;;5093219;28;20012;-71
2021/12/04 06:01:16;;;;;;;12.23;5.93;;;;;;;;;;5093453;28;20028;-71
2021/12/04 06:03:42;;;;;;;12.88;5.45;;;;;;;;;;5093870;28;20020;-71
2021/12/04 06:06:08;;;;;;;11.60;5.57;;;;;;;;;;5092929;28;20060;-71
2021/12/04 06:08:34;;;;;;;16.67;8.50;;;;;;;;;;5093506;28;20333;-71
2021/12/04 06:11:01;;;;;;;10.30;6.60;;;;;;;;;;5093451;28;20549;-71
2021/12/04 06:13:28;;;;;;;10.55;6.18;;;;;;;;;;5093070;28;20096;-71
2021/12/04 06:15:54;;;;;;;10.07;5.88;;;;;;;;;;5093503;28;20036;-71
2021/12/04 06:18:21;;;;;;;11.73;6.30;;;;;;;;;;5092056;28;20111;-71
2021/12/04 06:23:33;;;;;;;10.60;5.35;;;;;;;;;;5093564;28;20035;-70
2021/12/04 06:26:00;;;;;;;13.40;6.78;;;;;;;;;;5092853;28;20060;-74
2021/12/04 06:28:26;;;;;;;10.43;6.13;;;;;;;;;;5093250;28;20194;-70
2021/12/04 06:30:54;;;;;;;11.15;6.05;;;;;;;;;;5093224;28;20025;-69
2021/12/04 06:33:21;;;;;;;12.60;6.80;;;;;;;;;;5092788;28;20070;-71
2021/12/04 06:35:47;;;;;;;13.57;6.95;;;;;;;;;;5091933;28;20085;-71
2021/12/04 06:38:16;;;;;;;15.65;9.30;;;;;;;;;;5093191;28;20488;-70
2021/12/04 06:40:43;;;;;;;14.25;7.35;;;;;;;;;;5092940;28;20115;-70
2021/12/04 06:43:10;;;;;;;13.68;8.65;;;;;;;;;;5093069;28;20027;-70
2021/12/04 06:45:38;;;;;;;12.48;7.38;;;;;;;;;;5093245;28;20476;-71
2021/12/04 06:48:23;;;;;;;15.15;9.82;;;;;;;;;;5092689;28;20032;-70
2021/12/04 06:50:52;;;;;;;18.05;10.50;;;;;;;;;;5093238;28;20016;-71
2021/12/04 06:55:52;;;;;;;14.48;8.52;;;;;;;;;;5092572;28;20016;-71
2021/12/04 06:58:18;;;;;;;10.85;6.47;;;;;;;;;;5093153;28;20023;-70
2021/12/04 07:00:45;;;;;;;13.40;7.57;;;;;;;;;;5092895;28;20031;-71
2021/12/04 07:03:12;;;;;;;11.35;6.25;;;;;;;;;;5092643;28;20503;-71
2021/12/04 07:05:38;;;;;;;15.20;6.57;;;;;;;;;;5092936;28;20109;-72
2021/12/04 07:08:07;;;;;;;14.35;6.97;;;;;;;;;;5093078;28;20036;-71
2021/12/04 07:10:34;;;;;;;20.10;10.25;;;;;;;;;;5091317;28;20032;-70
2021/12/04 07:13:01;;;;;;;12.60;7.28;;;;;;;;;;5094091;28;20128;-71
2021/12/04 07:15:30;;;;;;;18.02;9.13;;;;;;;;;;5094913;28;20020;-72
2021/12/04 07:17:56;;;;;;;15.85;8.80;;;;;;;;;;5096503;28;20020;-72
2021/12/04 07:20:23;;;;;;;16.95;9.50;;;;;;;;;;5096489;28;20027;-70
2021/12/04 07:22:49;;;;;;;12.30;7.38;;;;;;;;;;5096064;28;20024;-72
2021/12/04 07:25:16;;;;;;;14.00;8.30;;;;;;;;;;5096664;28;20024;-71
2021/12/04 07:27:42;;;;;;;13.55;7.68;;;;;;;;;;5096603;28;20484;-71
2021/12/04 07:30:09;;;;;;;15.38;8.38;;;;;;;;;;5096033;28;20024;-71
2021/12/04 07:32:36;;;;;;;15.93;8.90;;;;;;;;;;5096347;28;20028;-73
2021/12/04 07:35:03;;;;;;;20.63;10.23;;;;;;;;;;5096414;28;20099;-72
2021/12/04 07:37:29;;;;;;;23.25;12.00;;;;;;;;;;5096148;28;20028;-72
2021/12/04 07:39:55;;;;;;;19.90;10.32;;;;;;;;;;5096363;28;20044;-71
2021/12/04 07:42:21;;;;;;;21.80;13.10;;;;;;;;;;5096382;28;20024;-71
2021/12/04 07:44:48;;;;;;;22.50;12.60;;;;;;;;;;5095659;28;20054;-71
2021/12/04 07:47:14;;;;;;;14.85;8.85;;;;;;;;;;5096194;28;20507;-72
2021/12/04 07:49:41;;;;;;;18.17;9.55;;;;;;;;;;5095880;28;20028;-71
2021/12/04 07:52:08;;;;;;;14.85;8.88;;;;;;;;;;5095551;28;20020;-71
2021/12/04 07:54:35;;;;;;;24.60;11.15;;;;;;;;;;5095952;28;20051;-71
2021/12/04 07:57:01;;;;;;;34.92;18.02;;;;;;;;;;5095711;28;20103;-72
2021/12/04 07:59:28;;;;;;;29.10;15.05;;;;;;;;;;5093893;28;20434;-70
2021/12/04 08:01:56;;;;;;;37.15;18.08;;;;;;;;;;5094335;28;20430;-70
2021/12/04 08:04:23;;;;;;;22.92;12.27;;;;;;;;;;5095463;28;20121;-71
2021/12/04 08:06:49;;;;;;;14.32;8.15;;;;;;;;;;5095053;28;20135;-71
2021/12/04 08:09:15;;;;;;;14.60;7.85;;;;;;;;;;5095559;28;20057;-71
2021/12/04 08:11:41;;;;;;;12.30;7.25;;;;;;;;;;5094986;28;20049;-71
2021/12/04 08:14:07;;;;;;;12.23;8.35;;;;;;;;;;5095583;28;20349;-71
2021/12/04 08:16:34;;;;;;;12.95;7.93;;;;;;;;;;5093989;28;20115;-71
2021/12/04 08:19:01;;;;;;;12.65;6.78;;;;;;;;;;5094887;28;20035;-71
2021/12/04 08:21:27;;;;;;;13.43;8.98;;;;;;;;;;5095236;28;20430;-69
2021/12/04 08:23:54;;;;;;;11.57;5.90;;;;;;;;;;5095206;28;20179;-71
2021/12/04 08:26:20;;;;;;;12.15;5.75;;;;;;;;;;5094669;28;20056;-71
2021/12/04 08:28:47;;;;;;;17.48;6.85;;;;;;;;;;5095296;28;20093;-71
2021/12/04 08:31:13;;;;;;;12.45;7.15;;;;;;;;;;5095075;28;20081;-71
2021/12/04 08:33:39;;;;;;;14.95;7.90;;;;;;;;;;5094628;28;20024;-71
2021/12/04 08:36:06;;;;;;;9.75;5.50;;;;;;;;;;5095057;28;20016;-71
2021/12/04 08:38:33;;;;;;;10.95;5.85;;;;;;;;;;5094949;28;20023;-71
2021/12/04 08:41:02;;;;;;;12.90;7.30;;;;;;;;;;5093223;28;20016;-71
2021/12/04 08:43:28;;;;;;;14.57;7.65;;;;;;;;;;5095033;28;20385;-71
2021/12/04 08:45:55;;;;;;;21.05;7.05;;;;;;;;;;5094702;28;20077;-71
2021/12/04 08:48:22;;;;;;;13.15;8.00;;;;;;;;;;5094382;28;20020;-71
2021/12/04 08:50:48;;;;;;;13.00;6.80;;;;;;;;;;5094594;28;20028;-71
2021/12/04 08:53:15;;;;;;;20.23;11.02;;;;;;;;;;5093329;28;20073;-71
2021/12/04 08:55:43;;;;;;;19.00;10.75;;;;;;;;;;5094185;28;20028;-71
2021/12/04 08:58:09;;;;;;;19.73;10.00;;;;;;;;;;5094559;28;20062;-71
2021/12/04 09:00:59;;;;;;;20.38;11.50;;;;;;;;;;5094757;28;20028;-71
2021/12/04 09:03:33;;;;;;;19.23;9.65;;;;;;;;;;5094800;28;20016;-71
2021/12/04 09:05:59;;;;;;;14.98;8.05;;;;;;;;;;5094166;28;20048;-71
2021/12/04 09:08:26;;;;;;;15.77;7.63;;;;;;;;;;5094069;28;20070;-71
2021/12/04 09:10:54;;;;;;;15.43;9.30;;;;;;;;;;5094485;28;20031;-71
2021/12/04 09:13:21;;;;;;;16.17;7.43;;;;;;;;;;5094649;28;20020;-71
2021/12/04 09:15:47;;;;;;;18.52;8.82;;;;;;;;;;5093522;28;20017;-71
2021/12/04 09:18:14;;;;;;;18.60;9.65;;;;;;;;;;5094186;28;20032;-71
2021/12/04 09:20:40;;;;;;;23.92;11.60;;;;;;;;;;5094219;28;20024;-71
2021/12/04 09:23:13;;;;;;;21.60;9.30;;;;;;;;;;5093782;28;20437;-71
2021/12/04 09:25:43;;;;;;;14.52;8.48;;;;;;;;;;5094115;28;20328;-71
2021/12/04 10:00:19;;;;;;;33.05;17.70;;;;;;;;;;5093896;28;20066;-70
2021/12/04 10:11:38;;;;;;;12.75;8.68;;;;;;;;;;5093569;28;20447;-71
2021/12/04 10:33:16;;;;;;;15.30;6.75;;;;;;;;;;5110694;28;20039;-70
2021/12/04 10:35:43;;;;;;;9.57;5.88;;;;;;;;;;5111090;28;20023;-70
2021/12/04 10:38:16;;;;;;;11.80;6.50;;;;;;;;;;5109660;28;20498;-70
2021/12/04 10:43:05;;;;;;;7.05;3.42;;;;;;;;;;5071431;28;20479;-71
2021/12/04 10:45:36;;;;;;;6.80;3.40;;;;;;;;;;5054430;28;20032;-71
2021/12/04 10:48:09;;;;;;;10.70;5.97;;;;;;;;;;5070381;28;20114;-71
2021/12/04 10:52:03;;;;;;;11.18;4.55;;;;;;;;;;5112086;27;20438;-71
2021/12/04 10:54:38;;;;;;;13.10;7.80;;;;;;;;;;5111088;28;20111;-71
2021/12/04 11:22:30;;;;;;;12.50;6.68;;;;;;;;;;5111073;28;20399;-71
2021/12/04 11:45:29;;;;;;;13.10;5.78;;;;;;;;;;5111832;27;20397;-71
2021/12/04 11:47:57;;;;;;;10.50;4.63;;;;;;;;;;5111360;28;20028;-71
2021/12/04 11:50:28;;;;;;;8.82;4.63;;;;;;;;;;5110913;28;20099;-72
2021/12/04 11:52:56;;;;;;;7.47;4.13;;;;;;;;;;5111290;28;20026;-72
2021/12/04 11:56:36;;;;;;;9.77;5.75;;;;;;;;;;5110893;27;20442;-69
2021/12/04 11:59:03;;;;;;;7.15;3.90;;;;;;;;;;5111210;28;20114;-72
2021/12/04 12:01:57;;;;;;;7.82;4.10;;;;;;;;;;5051005;28;20502;-71
2021/12/04 12:05:20;;;;;;;11.05;4.07;;;;;;;;;;5111159;27;20450;-72
2021/12/04 12:08:35;;;;;;;7.13;3.67;;;;;;;;;;5111552;27;20462;-72
2021/12/04 12:11:03;;;;;;;9.25;4.43;;;;;;;;;;5111047;28;20106;-71
2021/12/04 12:14:50;;;;;;;10.30;5.25;;;;;;;;;;5111167;27;20462;-70
2021/12/04 12:17:18;;;;;;;10.57;5.78;;;;;;;;;;5111102;28;20024;-71
2021/12/04 12:20:54;;;;;;;18.25;8.25;;;;;;;;;;5131793;27;20123;-71
2021/12/04 12:23:25;;;;;;;;;;;;;;;;;;5093406;28;20036;-71
2021/12/04 12:37:23;;;;;;;24.60;14.68;;;;;;;;;;5111102;28;20020;-72
2021/12/04 12:39:58;;;;;;;26.08;15.10;;;;;;;;;;5110725;28;20112;-71
2021/12/04 12:42:26;;;;;;;25.80;16.05;;;;;;;;;;5111132;28;20020;-72
2021/12/04 12:44:52;;;;;;;19.88;11.80;;;;;;;;;;5111182;28;20028;-72
2021/12/04 12:47:19;;;;;;;25.05;13.98;;;;;;;;;;5110554;28;20024;-71
2021/12/04 12:49:45;;;;;;;24.38;15.80;;;;;;;;;;5111109;28;20123;-72
2021/12/04 12:52:20;;;;;;;23.77;13.75;;;;;;;;;;5111014;28;20383;-72
2021/12/04 12:54:52;;;;;;;25.42;15.45;;;;;;;;;;5110513;28;20377;-72
2021/12/04 12:57:22;;;;;;;22.15;12.27;;;;;;;;;;5109618;28;20467;-72
2021/12/04 13:13:26;;;;;;;30.02;14.68;;;;;;;;;;5111400;27;20400;-70
2021/12/04 13:15:54;;;;;;;28.55;16.50;;;;;;;;;;5111018;28;20028;-71
2021/12/04 13:18:22;;;;;;;30.65;19.83;;;;;;;;;;5111190;28;20503;-71
2021/12/04 13:20:49;;;;;;;26.30;13.85;;;;;;;;;;5110991;28;20476;-71
2021/12/04 13:23:19;;;;;;;28.60;13.02;;;;;;;;;;5110541;28;20024;-70
2021/12/04 13:25:55;;;;;;;21.73;13.18;;;;;;;;;;5110894;28;20051;-71
2021/12/04 13:28:24;;;;;;;27.33;16.13;;;;;;;;;;5110512;28;20053;-71
2021/12/04 13:30:50;;;;;;;31.33;16.65;;;;;;;;;;5110910;28;20062;-71
2021/12/04 13:33:16;;;;;;;26.95;15.13;;;;;;;;;;5109584;28;20134;-71
2021/12/04 13:35:46;;;;;;;15.93;9.13;;;;;;;;;;5110474;28;20023;-72
2021/12/04 13:38:14;;;;;;;21.58;12.18;;;;;;;;;;5109634;28;20032;-71
2021/12/04 13:40:40;;;;;;;16.77;8.77;;;;;;;;;;5110816;28;20453;-70
2021/12/04 13:43:10;;;;;;;19.88;10.27;;;;;;;;;;5110140;28;20531;-71
2021/12/04 13:45:37;;;;;;;32.58;16.38;;;;;;;;;;5110626;28;20031;-71
2021/12/04 13:48:03;;;;;;;30.38;14.98;;;;;;;;;;5110471;28;20027;-71
2021/12/04 13:52:58;;;;;;;33.38;15.98;;;;;;;;;;5110408;28;20067;-72
2021/12/04 13:55:24;;;;;;;22.92;13.00;;;;;;;;;;5110808;28;20019;-71
2021/12/04 13:57:51;;;;;;;30.33;13.88;;;;;;;;;;5110070;28;20046;-71
2021/12/04 14:00:18;;;;;;;24.00;12.50;;;;;;;;;;5110488;28;20020;-72
2021/12/04 14:02:44;;;;;;;18.33;10.18;;;;;;;;;;5108990;28;20077;-72
2021/12/04 14:05:13;;;;;;;18.48;8.48;;;;;;;;;;5108570;28;20042;-71
2021/12/04 14:07:45;;;;;;;16.30;9.00;;;;;;;;;;5110594;28;20439;-72
2021/12/04 14:10:16;;;;;;;15.10;8.52;;;;;;;;;;5109970;28;20020;-71
2021/12/04 14:12:43;;;;;;;14.68;9.30;;;;;;;;;;5109895;28;20047;-72
2021/12/04 14:15:13;;;;;;;22.42;13.23;;;;;;;;;;5110198;28;20095;-72
2021/12/04 14:17:40;;;;;;;15.30;9.10;;;;;;;;;;5109881;28;20016;-71
2021/12/04 14:20:07;;;;;;;13.05;6.95;;;;;;;;;;5110317;28;20020;-72
2021/12/04 14:22:33;;;;;;;10.68;5.68;;;;;;;;;;5108085;28;20092;-71
2021/12/04 14:25:02;;;;;;;12.27;4.47;;;;;;;;;;5095918;28;20411;-72
2021/12/04 14:27:31;;;;;;;11.10;5.05;;;;;;;;;;5096313;28;20024;-72
2021/12/04 14:29:59;;;;;;;9.55;4.93;;;;;;;;;;5096389;28;20043;-71
2021/12/04 14:32:30;;;;;;;11.90;6.03;;;;;;;;;;5095944;28;20032;-71
2021/12/04 14:35:14;;;;;;;7.80;4.32;;;;;;;;;;5096400;28;20095;-71
2021/12/04 14:37:41;;;;;;;9.18;4.75;;;;;;;;;;5096712;28;20380;-71
2021/12/04 14:40:08;;;;;;;14.88;7.30;;;;;;;;;;5095665;28;20016;-71
2021/12/04 14:42:36;;;;;;;13.02;5.88;;;;;;;;;;5096137;28;20024;-71
2021/12/04 14:45:08;;;;;;;12.07;6.90;;;;;;;;;;5096156;28;20077;-71
2021/12/04 14:47:37;;;;;;;30.15;17.60;;;;;;;;;;5095604;28;20073;-70
2021/12/04 14:50:04;;;;;;;26.13;15.75;;;;;;;;;;5095991;28;20017;-71
2021/12/04 14:52:32;;;;;;;22.63;15.27;;;;;;;;;;5095749;28;20036;-71
2021/12/04 14:55:00;;;;;;;26.17;17.17;;;;;;;;;;5094582;28;20023;-71
2021/12/04 14:57:28;;;;;;;42.25;27.55;;;;;;;;;;5095914;28;20107;-72
2021/12/04 15:00:01;;;;;;;46.95;31.02;;;;;;;;;;5095334;28;20043;-73
2021/12/04 15:02:27;;;;;;;41.10;24.80;;;;;;;;;;5095837;28;20021;-72
2021/12/04 15:04:53;;;;;;;48.03;27.48;;;;;;;;;;5095898;28;20028;-71
2021/12/04 15:07:21;;;;;;;38.20;23.10;;;;;;;;;;5095221;28;20102;-70
2021/12/04 15:09:48;;;;;;;33.75;21.05;;;;;;;;;;5095489;28;20092;-71
2021/12/04 15:12:24;;;;;;;25.30;16.08;;;;;;;;;;5095146;28;20048;-70
2021/12/04 15:14:54;;;;;;;30.73;15.88;;;;;;;;;;5095083;28;20480;-71
2021/12/04 15:17:21;;;;;;;41.03;24.45;;;;;;;;;;5095683;28;20059;-72
2021/12/04 15:19:48;;;;;;;42.65;24.92;;;;;;;;;;5095432;28;20476;-73
2021/12/04 15:22:21;;;;;;;46.70;28.90;;;;;;;;;;5094977;28;20189;-72
2021/12/04 15:24:48;;;;;;;65.13;42.58;;;;;;;;;;5095396;28;20026;-72
2021/12/04 15:27:18;;;;;;;52.28;31.25;;;;;;;;;;5095284;28;20059;-72
2021/12/04 15:29:45;;;;;;;36.97;20.55;;;;;;;;;;5094865;28;20045;-71
2021/12/04 15:32:15;;;;;;;32.75;19.88;;;;;;;;;;5095100;28;20039;-73
2021/12/04 15:34:53;;;;;;;41.92;27.38;;;;;;;;;;5093696;28;20082;-71
2021/12/04 15:37:28;;;;;;;40.05;23.60;;;;;;;;;;5093836;28;20028;-72
2021/12/04 15:39:54;;;;;;;27.92;17.13;;;;;;;;;;5094953;28;20480;-71
2021/12/04 15:42:29;;;;;;;29.55;15.20;;;;;;;;;;5094493;28;20028;-71
2021/12/04 15:48:07;;;;;;;53.67;35.40;;;;;;;;;;5094853;28;20377;-71
2021/12/04 15:53:21;;;;;;;69.72;39.08;;;;;;;;;;5094716;28;20047;-72
2021/12/04 15:55:49;;;;;;;72.45;42.92;;;;;;;;;;5094147;28;20093;-72
2021/12/04 15:58:17;;;;;;;78.32;45.72;;;;;;;;;;5093250;28;20047;-71
2021/12/04 16:00:54;;;;;;;80.53;43.58;;;;;;;;;;5093214;28;20032;-72
2021/12/04 16:03:22;;;;;;;125.45;67.05;;;;;;;;;;5094234;28;20020;-71
2021/12/04 16:05:50;;;;;;;123.25;62.97;;;;;;;;;;5094500;28;20471;-71
2021/12/04 16:08:18;;;;;;;77.50;39.97;;;;;;;;;;5094417;28;20103;-71
2021/12/04 16:10:45;;;;;;;83.07;46.60;;;;;;;;;;5094011;28;20015;-71
2021/12/04 16:13:12;;;;;;;73.50;45.47;;;;;;;;;;5094023;28;20514;-72
2021/12/04 16:15:39;;;;;;;63.17;36.20;;;;;;;;;;5094297;28;20024;-71
2021/12/04 16:18:06;;;;;;;51.92;30.17;;;;;;;;;;5093957;28;20048;-71
2021/12/04 16:20:33;;;;;;;49.08;31.60;;;;;;;;;;5094134;28;20095;-71
2021/12/04 16:23:00;;;;;;;63.28;36.60;;;;;;;;;;5094413;28;20016;-71
2021/12/04 16:25:34;;;;;;;69.93;45.20;;;;;;;;;;5092421;28;20103;-71
2021/12/04 16:28:09;;;;;;;56.13;36.40;;;;;;;;;;5094215;28;20024;-71
2021/12/04 16:30:48;;;;;;;62.42;40.85;;;;;;;;;;5094111;28;20020;-71
2021/12/04 16:35:55;;;;;;;49.25;30.50;;;;;;;;;;5093993;28;20020;-71
2021/12/04 16:38:22;;;;;;;46.20;27.77;;;;;;;;;;5092321;28;20024;-71
2021/12/04 16:40:49;;;;;;;51.70;30.80;;;;;;;;;;5094092;28;20016;-71
2021/12/04 16:43:28;;;;;;;49.00;26.60;;;;;;;;;;5094084;28;20020;-71
2021/12/04 16:45:56;;;;;;;41.63;21.58;;;;;;;;;;5093203;28;20119;-71
2021/12/04 16:48:25;;;;;;;35.88;22.30;;;;;;;;;;5092454;28;20024;-72
2021/12/04 16:56:24;;;;;;;114.68;65.93;;;;;;;;;;5093897;28;20030;-71
2021/12/04 16:58:50;;;;;;;109.05;59.45;;;;;;;;;;5093831;28;20097;-71
2021/12/04 17:01:18;;;;;;;106.53;61.05;;;;;;;;;;5091830;28;20024;-71
2021/12/04 17:03:44;;;;;;;104.93;62.40;;;;;;;;;;5093627;28;20023;-71
2021/12/04 17:06:10;;;;;;;102.40;61.05;;;;;;;;;;5093228;28;20027;-71
2021/12/04 17:08:36;;;;;;;97.22;59.53;;;;;;;;;;5093430;28;20020;-71
2021/12/04 17:11:03;;;;;;;76.72;51.63;;;;;;;;;;5093407;28;20028;-71
2021/12/04 17:13:30;;;;;;;81.07;48.65;;;;;;;;;;5093359;28;20024;-70
2021/12/04 17:15:57;;;;;;;72.63;47.53;;;;;;;;;;5093423;28;20020;-71
2021/12/04 17:18:26;;;;;;;77.15;49.33;;;;;;;;;;5093624;28;20464;-71
2021/12/04 17:20:53;;;;;;;71.32;46.00;;;;;;;;;;5092949;28;20028;-70
2021/12/04 17:23:23;;;;;;;60.95;40.80;;;;;;;;;;5093486;28;20020;-70
2021/12/04 17:25:50;;;;;;;66.32;44.22;;;;;;;;;;5092036;28;20105;-71
2021/12/04 17:28:17;;;;;;;105.53;60.20;;;;;;;;;;5092911;28;20493;-71
2021/12/04 17:30:46;;;;;;;83.25;51.55;;;;;;;;;;5093438;28;20032;-71
2021/12/04 17:33:12;;;;;;;81.25;44.60;;;;;;;;;;5093200;28;20031;-71
2021/12/04 17:35:38;;;;;;;63.75;39.05;;;;;;;;;;5092918;28;20420;-72
2021/12/04 17:38:05;;;;;;;71.53;40.15;;;;;;;;;;5092208;28;20035;-72
2021/12/04 17:40:34;;;;;;;70.00;39.33;;;;;;;;;;5093536;28;20028;-70
2021/12/04 17:43:00;;;;;;;66.93;39.53;;;;;;;;;;5092925;28;20478;-71
2021/12/04 17:45:27;;;;;;;73.30;40.83;;;;;;;;;;5093040;28;20074;-70
2021/12/04 17:47:54;;;;;;;62.83;37.63;;;;;;;;;;5093190;28;20020;-70
2021/12/04 17:50:25;;;;;;;63.65;37.97;;;;;;;;;;5092745;28;20047;-70
2021/12/04 17:52:52;;;;;;;59.78;34.40;;;;;;;;;;5093148;28;20127;-71
2021/12/04 17:55:19;;;;;;;47.50;32.22;;;;;;;;;;5092834;28;20462;-72
2021/12/04 17:57:45;;;;;;;43.75;26.10;;;;;;;;;;5092156;28;20437;-72
2021/12/04 18:00:15;;;;;;;46.47;27.77;;;;;;;;;;5096845;28;20031;-72
2021/12/04 18:02:41;;;;;;;51.42;29.55;;;;;;;;;;5097555;28;20412;-71
2021/12/04 18:05:09;;;;;;;35.13;21.98;;;;;;;;;;5096901;28;20024;-71
2021/12/04 18:07:36;;;;;;;23.92;17.63;;;;;;;;;;5097005;28;20476;-70
2021/12/04 18:10:04;;;;;;;33.25;17.95;;;;;;;;;;5096300;28;20024;-71
2021/12/04 18:12:36;;;;;;;37.67;24.90;;;;;;;;;;5095093;28;20488;-71